createdAt,value
2019-05-15T00:00:08.893Z,98795.49
2019-05-15T00:02:38.824Z,98788.34
2019-05-15T00:05:08.978Z,98783.17
2019-05-15T00:07:39.315Z,98781.00
2019-05-15T00:10:08.949Z,98784.24
2019-05-15T00:12:39.542Z,98784.24
2019-05-15T00:15:09.238Z,98780.33
2019-05-15T00:17:39.441Z,98780.33
2019-05-15T00:20:09.872Z,98777.81
2019-05-15T00:22:38.865Z,98773.88
2019-05-15T00:25:09.282Z,98759.39
2019-05-15T00:27:38.665Z,98757.13
2019-05-15T00:30:10.476Z,98761.81
2019-05-15T00:32:39.461Z,98751.97
2019-05-15T00:35:09.320Z,98746.27
2019-05-15T00:37:39.020Z,98746.27
2019-05-15T00:40:08.888Z,98748.01
2019-05-15T00:42:38.542Z,98746.55
2019-05-15T00:45:09.450Z,98752.08
2019-05-15T00:47:39.622Z,98740.40
2019-05-15T00:50:09.447Z,98740.40
2019-05-15T00:52:39.263Z,98741.25
2019-05-15T00:55:08.745Z,98741.25
2019-05-15T00:57:39.219Z,98738.83
2019-05-15T01:00:08.474Z,98749.63
2019-05-15T01:02:38.917Z,98739.66
2019-05-15T01:05:08.277Z,98738.58
2019-05-15T01:07:38.962Z,98738.58
2019-05-15T01:10:09.769Z,98736.53
2019-05-15T01:12:38.708Z,98729.08
2019-05-15T01:15:09.276Z,98729.08
2019-05-15T01:17:38.975Z,98728.14
2019-05-15T01:20:08.910Z,98721.05
2019-05-15T01:22:39.471Z,98735.08
2019-05-15T01:25:08.585Z,98718.81
2019-05-15T01:27:38.602Z,98718.81
2019-05-15T01:30:09.010Z,98731.93
2019-05-15T01:32:39.389Z,98717.48
2019-05-15T01:35:09.743Z,98717.48
2019-05-15T01:37:39.176Z,98724.27
2019-05-15T01:40:08.833Z,98721.23
2019-05-15T01:42:38.595Z,98715.82
2019-05-15T01:45:08.994Z,98715.56
2019-05-15T01:47:38.894Z,98713.98
2019-05-15T01:50:09.299Z,98720.69
2019-05-15T01:52:39.089Z,98706.31
2019-05-15T01:55:09.260Z,98710.77
2019-05-15T01:57:38.567Z,98708.20
2019-05-15T02:00:09.034Z,98704.67
2019-05-15T02:02:39.115Z,98699.43
2019-05-15T02:05:09.018Z,98702.27
2019-05-15T02:18:44.042Z,98690.59
2019-05-15T02:21:12.338Z,98684.45
2019-05-15T02:23:40.659Z,98676.36
2019-05-15T02:26:09.185Z,98679.88
2019-05-15T02:28:38.362Z,98680.19
2019-05-15T02:31:10.336Z,98681.14
2019-05-15T02:33:39.964Z,98680.19
2019-05-15T02:38:53.611Z,98677.06
2019-05-15T02:41:21.907Z,98677.06
2019-05-15T02:43:50.354Z,98674.05
2019-05-15T02:46:19.595Z,98683.14
2019-05-15T02:48:48.910Z,98672.67
2019-05-15T02:51:19.373Z,98675.24
2019-05-15T02:53:50.041Z,98658.73
2019-05-15T02:56:20.313Z,98666.36
2019-05-15T02:58:49.127Z,98664.44
2019-05-15T03:01:18.981Z,98665.16
2019-05-15T03:03:49.807Z,98658.66
2019-05-15T03:06:19.258Z,98664.74
2019-05-15T03:08:49.573Z,98673.30
2019-05-15T03:11:19.147Z,98673.30
2019-05-15T03:13:50.399Z,98659.41
2019-05-15T03:16:19.411Z,98659.41
2019-05-15T03:18:50.492Z,98663.72
2019-05-15T03:21:18.895Z,98663.72
2019-05-15T03:23:50.555Z,98654.89
2019-05-15T03:26:19.726Z,98654.89
2019-05-15T03:28:49.595Z,98672.74
2019-05-15T03:31:35.606Z,98666.50
2019-05-15T03:33:53.338Z,98671.03
2019-05-15T03:36:23.315Z,98665.88
2019-05-15T03:38:49.961Z,98663.73
2019-05-15T03:41:19.480Z,98663.73
2019-05-15T03:43:49.607Z,98671.83
2019-05-15T03:46:19.996Z,98671.98
2019-05-15T03:48:48.738Z,98668.80
2019-05-15T03:51:19.821Z,98655.53
2019-05-15T03:53:49.705Z,98655.53
2019-05-15T03:56:19.134Z,98654.67
2019-05-15T03:58:49.367Z,98659.47
2019-05-15T04:01:30.184Z,98668.06
2019-05-15T04:03:49.582Z,98657.34
2019-05-15T04:06:19.320Z,98653.12
2019-05-15T04:08:49.706Z,98647.96
2019-05-15T04:11:20.385Z,98643.69
2019-05-15T04:13:49.990Z,98643.69
2019-05-15T04:16:19.224Z,98640.31
2019-05-15T04:18:49.116Z,98640.31
2019-05-15T04:21:19.972Z,98640.34
2019-05-15T04:23:50.061Z,98646.00
2019-05-15T04:26:19.397Z,98639.98
2019-05-15T04:28:49.466Z,98630.86
2019-05-15T04:31:19.328Z,98636.13
2019-05-15T04:33:49.069Z,98638.83
2019-05-15T04:36:19.149Z,98625.66
2019-05-15T04:38:49.673Z,98624.98
2019-05-15T04:41:19.715Z,98628.61
2019-05-15T04:43:49.507Z,98634.13
2019-05-15T04:46:19.724Z,98634.63
2019-05-15T04:48:50.236Z,98638.78
2019-05-15T04:51:19.198Z,98632.38
2019-05-15T04:53:50.371Z,98635.16
2019-05-15T04:56:19.270Z,98640.14
2019-05-15T04:58:50.687Z,98644.36
2019-05-15T05:01:19.922Z,98641.02
2019-05-15T05:03:49.554Z,98642.92
2019-05-15T05:06:19.106Z,98640.47
2019-05-15T05:08:49.123Z,98638.05
2019-05-15T05:11:19.378Z,98640.06
2019-05-15T05:13:48.481Z,98644.73
2019-05-15T05:16:19.075Z,98638.66
2019-05-15T05:18:48.842Z,98636.44
2019-05-15T05:21:18.396Z,98642.37
2019-05-15T05:23:48.385Z,98644.23
2019-05-15T05:26:18.578Z,98645.75
2019-05-15T05:28:48.697Z,98647.44
2019-05-15T05:31:19.047Z,98644.45
2019-05-15T05:33:48.653Z,98639.22
2019-05-15T05:36:18.557Z,98643.23
2019-05-15T05:38:49.440Z,98643.52
2019-05-15T05:41:18.935Z,98644.46
2019-05-15T05:43:48.711Z,98646.36
2019-05-15T05:46:18.438Z,98653.13
2019-05-15T05:48:48.966Z,98659.50
2019-05-15T05:51:19.016Z,98648.84
2019-05-15T05:53:48.075Z,98659.80
2019-05-15T05:56:18.112Z,98659.80
2019-05-15T05:58:48.992Z,98668.49
2019-05-15T06:01:18.723Z,98667.89
2019-05-15T06:03:48.893Z,98669.36
2019-05-15T06:06:18.639Z,98675.19
2019-05-15T06:08:47.988Z,98673.27
2019-05-15T06:11:18.427Z,98676.14
2019-05-15T06:13:50.074Z,98673.84
2019-05-15T06:16:18.834Z,98673.90
2019-05-15T06:18:49.228Z,98681.39
2019-05-15T06:21:17.917Z,98675.84
2019-05-15T06:23:53.997Z,98677.07
2019-05-15T06:26:19.339Z,98682.66
2019-05-15T06:28:48.973Z,98676.47
2019-05-15T06:31:18.909Z,98682.47
2019-05-15T06:33:49.019Z,98677.70
2019-05-15T06:36:18.015Z,98686.36
2019-05-15T06:38:48.349Z,98685.55
2019-05-15T06:41:18.090Z,98683.59
2019-05-15T06:43:48.403Z,98683.59
2019-05-15T06:46:18.797Z,98682.35
2019-05-15T06:48:48.530Z,98682.35
2019-05-15T06:51:18.209Z,98679.88
2019-05-15T06:53:49.162Z,98667.80
2019-05-15T06:56:18.750Z,98667.80
2019-05-15T06:58:48.784Z,98676.60
2019-05-15T07:01:18.948Z,98673.44
2019-05-15T07:03:48.410Z,98673.11
2019-05-15T07:06:18.158Z,98677.86
2019-05-15T07:08:49.281Z,98674.94
2019-05-15T07:11:18.912Z,98674.94
2019-05-15T07:13:48.614Z,98676.80
2019-05-15T07:16:18.148Z,98676.80
2019-05-15T07:18:48.503Z,98672.78
2019-05-15T07:21:19.986Z,98672.78
2019-05-15T07:23:49.370Z,98674.41
2019-05-15T07:26:18.283Z,98685.27
2019-05-15T07:28:48.581Z,98678.70
2019-05-15T07:31:18.040Z,98671.08
2019-05-15T07:33:49.073Z,98671.08
2019-05-15T07:36:19.215Z,98661.82
2019-05-15T07:38:48.502Z,98667.37
2019-05-15T07:41:18.475Z,98659.41
2019-05-15T07:43:49.398Z,98663.89
2019-05-15T07:46:18.504Z,98667.43
2019-05-15T07:48:49.046Z,98667.43
2019-05-15T07:51:18.040Z,98665.10
2019-05-15T07:53:49.073Z,98661.58
2019-05-15T07:56:18.131Z,98657.59
2019-05-15T07:58:52.072Z,98657.59
2019-05-15T08:01:18.583Z,98656.73
2019-05-15T08:03:56.622Z,98640.72
2019-05-15T08:06:18.031Z,98656.04
2019-05-15T08:08:48.564Z,98656.04
2019-05-15T08:11:21.855Z,98646.54
2019-05-15T08:13:48.697Z,98649.08
2019-05-15T08:16:18.115Z,98649.08
2019-05-15T08:18:48.403Z,98648.30
2019-05-15T08:21:18.571Z,98649.63
2019-05-15T08:23:48.417Z,98644.32
2019-05-15T08:26:17.828Z,98647.40
2019-05-15T08:28:48.726Z,98650.64
2019-05-15T08:31:18.377Z,98648.76
2019-05-15T08:33:48.218Z,98645.66
2019-05-15T08:36:18.365Z,98642.80
2019-05-15T08:38:48.608Z,98639.41
2019-05-15T08:41:18.583Z,98634.72
2019-05-15T08:43:48.627Z,98637.45
2019-05-15T08:46:18.668Z,98642.36
2019-05-15T08:48:49.119Z,98631.13
2019-05-15T08:51:19.252Z,98628.90
2019-05-15T08:53:48.834Z,98632.66
2019-05-15T08:56:19.470Z,98641.66
2019-05-15T08:58:48.647Z,98633.66
2019-05-15T09:01:18.100Z,98647.80
2019-05-15T09:03:48.814Z,98646.27
2019-05-15T09:06:20.652Z,98644.17
2019-05-15T09:08:49.016Z,98640.22
2019-05-15T09:11:19.139Z,98635.96
2019-05-15T09:13:52.725Z,98644.19
2019-05-15T09:16:18.543Z,98632.59
2019-05-15T09:18:48.541Z,98639.57
2019-05-15T09:21:19.134Z,98633.03
2019-05-15T09:23:49.838Z,98636.69
2019-05-15T09:26:19.522Z,98632.52
2019-05-15T09:28:49.458Z,98641.27
2019-05-15T09:31:19.248Z,98627.52
2019-05-15T09:33:49.273Z,98638.25
2019-05-15T09:36:20.126Z,98634.48
2019-05-15T09:38:49.056Z,98626.94
2019-05-15T09:41:18.053Z,98627.91
2019-05-15T09:43:48.507Z,98632.23
2019-05-15T09:46:18.452Z,98644.47
2019-05-15T09:48:51.292Z,98628.55
2019-05-15T09:51:18.352Z,98636.75
2019-05-15T09:53:48.446Z,98637.80
2019-05-15T09:56:18.636Z,98637.53
2019-05-15T09:58:49.027Z,98643.11
2019-05-15T10:01:19.597Z,98636.58
2019-05-15T10:03:48.477Z,98631.84
2019-05-15T10:06:20.044Z,98628.71
2019-05-15T10:08:48.960Z,98632.59
2019-05-15T10:11:19.667Z,98624.27
2019-05-15T10:13:47.770Z,98622.13
2019-05-15T10:16:19.543Z,98619.68
2019-05-15T10:18:50.972Z,98615.58
2019-05-15T10:21:18.590Z,98613.28
2019-05-15T10:23:48.998Z,98616.81
2019-05-15T10:26:19.067Z,98618.55
2019-05-15T10:28:49.034Z,98622.04
2019-05-15T10:31:19.256Z,98630.16
2019-05-15T10:33:48.946Z,98628.22
2019-05-15T10:36:18.851Z,98627.89
2019-05-15T10:38:48.860Z,98624.57
2019-05-15T10:41:18.830Z,98624.20
2019-05-15T10:43:56.010Z,98624.16
2019-05-15T10:46:18.984Z,98621.55
2019-05-15T10:48:49.246Z,98621.10
2019-05-15T10:51:19.514Z,98619.41
2019-05-15T10:53:48.811Z,98616.88
2019-05-15T10:56:18.626Z,98616.05
2019-05-15T10:58:50.120Z,98614.98
2019-05-15T11:01:19.181Z,98612.70
2019-05-15T11:03:49.604Z,98613.91
2019-05-15T11:06:18.327Z,98620.53
2019-05-15T11:08:51.112Z,98630.58
2019-05-15T11:11:18.338Z,98629.45
2019-05-15T11:13:46.891Z,98627.75
2019-05-15T11:16:15.607Z,98632.82
2019-05-15T11:18:43.982Z,98626.14
2019-05-15T11:21:12.285Z,98616.69
2019-05-15T11:23:42.635Z,98632.36
2019-05-15T11:26:10.720Z,98629.71
2019-05-15T11:28:39.507Z,98631.52
2019-05-15T11:31:10.342Z,98630.88
2019-05-15T11:33:38.760Z,98633.20
2019-05-15T11:36:07.118Z,98632.59
2019-05-15T11:38:37.967Z,98633.85
2019-05-15T11:41:05.520Z,98634.13
2019-05-15T11:43:33.835Z,98639.45
2019-05-15T11:46:02.541Z,98633.93
2019-05-15T11:48:31.227Z,98628.05
2019-05-15T11:50:59.921Z,98618.30
2019-05-15T11:53:28.603Z,98617.41
2019-05-15T11:55:59.674Z,98617.91
2019-05-15T11:58:28.168Z,98617.53
2019-05-15T12:00:57.962Z,98608.70
2019-05-15T12:03:28.864Z,98609.59
2019-05-15T12:05:59.689Z,98605.36
2019-05-15T12:08:29.385Z,98605.06
2019-05-15T12:10:59.171Z,98612.70
2019-05-15T12:13:28.001Z,98605.22
2019-05-15T12:15:58.751Z,98604.52
2019-05-15T12:18:28.549Z,98600.59
2019-05-15T12:20:59.653Z,98602.65
2019-05-15T12:23:29.158Z,98605.20
2019-05-15T12:25:59.747Z,98606.87
2019-05-15T12:28:29.544Z,98606.92
2019-05-15T12:30:59.639Z,98609.05
2019-05-15T12:33:28.931Z,98611.00
2019-05-15T12:35:57.851Z,98602.77
2019-05-15T12:38:28.880Z,98607.06
2019-05-15T13:00:58.441Z,98601.07
2019-05-15T13:03:28.730Z,98598.06
2019-05-15T13:05:56.870Z,98599.13
2019-05-15T13:08:25.163Z,98596.97
2019-05-15T13:10:53.468Z,98595.75
2019-05-15T13:13:21.782Z,98595.77
2019-05-15T13:15:50.152Z,98596.06
2019-05-15T13:18:18.466Z,98598.34
2019-05-15T13:20:48.905Z,98590.19
2019-05-15T13:23:16.827Z,98591.50
2019-05-15T13:25:45.131Z,98600.38
2019-05-15T13:28:13.454Z,98607.70
2019-05-15T13:30:41.845Z,98603.47
2019-05-15T13:33:10.480Z,98598.40
2019-05-15T13:35:39.159Z,98588.61
2019-05-15T13:38:10.077Z,98595.29
2019-05-15T13:40:42.156Z,98590.75
2019-05-15T13:43:08.673Z,98582.89
2019-05-15T13:45:38.622Z,98587.22
2019-05-15T13:48:08.868Z,98587.22
2019-05-15T13:50:40.402Z,98588.06
2019-05-15T13:53:10.924Z,98588.06
2019-05-15T13:55:42.248Z,98582.39
2019-05-15T13:58:08.959Z,98589.37
2019-05-15T14:00:39.140Z,98583.68
2019-05-15T14:03:09.143Z,98580.28
2019-05-15T14:05:38.307Z,98583.45
2019-05-15T14:08:07.027Z,98580.26
2019-05-15T14:10:35.630Z,98575.09
2019-05-15T14:13:04.703Z,98584.89
2019-05-15T14:15:33.352Z,98580.03
2019-05-15T14:18:02.484Z,98583.19
2019-05-15T14:20:30.872Z,98578.88
2019-05-15T14:22:59.231Z,98576.93
2019-05-15T14:25:27.551Z,98576.33
2019-05-15T14:27:55.885Z,98583.06
2019-05-15T14:30:24.242Z,98578.59
2019-05-15T14:32:52.551Z,98582.00
2019-05-15T14:35:21.130Z,98580.55
2019-05-15T14:38:02.539Z,98587.38
2019-05-15T14:40:20.119Z,98580.61
2019-05-15T14:42:48.714Z,98585.06
2019-05-15T14:45:19.069Z,98588.23
2019-05-15T14:47:49.187Z,98583.50
2019-05-15T14:50:17.710Z,98577.89
2019-05-15T14:52:47.956Z,98574.84
2019-05-15T14:55:16.959Z,98582.77
2019-05-15T14:57:45.274Z,98572.23
2019-05-15T15:00:14.085Z,98575.55
2019-05-15T15:02:42.404Z,98573.81
2019-05-15T15:05:10.856Z,98571.96
2019-05-15T15:07:39.187Z,98570.44
2019-05-15T15:10:08.393Z,98571.54
2019-05-15T15:12:39.524Z,98572.18
2019-05-15T15:15:10.006Z,98573.33
2019-05-15T15:17:38.611Z,98573.73
2019-05-15T15:20:07.795Z,98571.94
2019-05-15T15:22:39.108Z,98580.88
2019-05-15T15:25:09.498Z,98580.77
2019-05-15T15:27:39.046Z,98578.56
2019-05-15T15:30:09.301Z,98577.77
2019-05-15T15:32:38.348Z,98575.66
2019-05-15T15:35:08.540Z,98572.50
2019-05-15T15:37:38.174Z,98570.99
2019-05-15T15:40:08.393Z,98574.12
2019-05-15T15:42:39.546Z,98566.24
2019-05-15T15:45:08.980Z,98566.86
2019-05-15T15:47:38.935Z,98565.58
2019-05-15T15:50:09.815Z,98568.14
2019-05-15T15:52:39.021Z,98565.79
2019-05-15T15:55:09.051Z,98564.35
2019-05-15T15:57:39.665Z,98568.00
2019-05-15T16:00:08.987Z,98563.21
2019-05-15T16:02:40.606Z,98562.25
2019-05-15T16:05:08.223Z,98565.52
2019-05-15T16:07:37.952Z,98572.28
2019-05-15T16:10:08.597Z,98572.58
2019-05-15T16:12:38.837Z,98570.53
2019-05-15T16:15:09.058Z,98567.61
2019-05-15T16:17:38.486Z,98571.58
2019-05-15T16:20:08.662Z,98571.44
2019-05-15T16:22:38.189Z,98573.72
2019-05-15T16:25:10.466Z,98568.87
2019-05-15T16:27:39.226Z,98565.84
2019-05-15T16:30:08.468Z,98563.41
2019-05-15T16:32:38.768Z,98573.20
2019-05-15T16:35:08.419Z,98566.40
2019-05-15T16:37:38.856Z,98570.41
2019-05-15T16:40:08.714Z,98567.05
2019-05-15T16:42:38.425Z,98566.12
2019-05-15T16:45:09.667Z,98571.53
2019-05-15T16:47:38.866Z,98573.83
2019-05-15T16:50:09.175Z,98563.78
2019-05-15T16:52:38.904Z,98567.73
2019-05-15T16:55:09.410Z,98568.48
2019-05-15T16:57:38.748Z,98563.48
2019-05-15T17:00:09.810Z,98568.75
2019-05-15T17:02:39.624Z,98568.75
2019-05-15T17:05:09.668Z,98569.14
2019-05-15T17:07:39.087Z,98570.50
2019-05-15T17:10:08.831Z,98570.50
2019-05-15T17:12:38.756Z,98569.95
2019-05-15T17:15:09.112Z,98564.98
2019-05-15T17:17:38.679Z,98562.47
2019-05-15T17:20:10.086Z,98564.27
2019-05-15T17:22:38.905Z,98573.27
2019-05-15T17:25:09.681Z,98573.27
2019-05-15T17:27:38.246Z,98572.57
2019-05-15T17:30:09.457Z,98568.53
2019-05-15T17:32:38.962Z,98576.55
2019-05-15T17:35:09.783Z,98576.55
2019-05-15T17:37:38.524Z,98585.75
2019-05-15T17:40:07.856Z,98581.71
2019-05-15T17:42:38.901Z,98582.70
2019-05-15T17:45:09.031Z,98588.00
2019-05-15T17:47:38.769Z,98572.31
2019-05-15T17:50:08.621Z,98572.31
2019-05-15T17:52:38.667Z,98582.72
2019-05-15T17:55:07.568Z,98573.19
2019-05-15T17:57:38.326Z,98585.87
2019-05-15T18:00:12.457Z,98580.58
2019-05-15T18:02:40.027Z,98580.58
2019-05-15T18:05:09.002Z,98568.34
2019-05-15T18:07:38.953Z,98568.34
2019-05-15T18:10:08.365Z,98575.94
2019-05-15T18:12:38.883Z,98575.37
2019-05-15T18:15:08.987Z,98575.37
2019-05-15T18:17:39.265Z,98579.83
2019-05-15T18:20:09.799Z,98579.44
2019-05-15T18:22:38.822Z,98596.44
2019-05-15T18:25:08.988Z,98576.98
2019-05-15T18:27:38.799Z,98583.09
2019-05-15T18:30:09.278Z,98580.75
2019-05-15T18:32:39.026Z,98580.91
2019-05-15T18:35:08.417Z,98580.66
2019-05-15T18:37:39.321Z,98580.66
2019-05-15T18:40:09.893Z,98578.57
2019-05-15T18:42:39.012Z,98567.00
2019-05-15T18:45:11.783Z,98588.29
2019-05-15T18:47:40.435Z,98567.92
2019-05-15T18:50:13.176Z,98567.92
2019-05-15T18:52:39.461Z,98574.52
2019-05-15T18:55:08.236Z,98570.89
2019-05-15T18:57:38.499Z,98575.34
2019-05-15T19:00:08.773Z,98575.34
2019-05-15T19:02:39.217Z,98605.42
2019-05-15T19:05:08.441Z,98579.21
2019-05-15T19:07:38.269Z,98580.33
2019-05-15T19:10:09.183Z,98534.44
2019-05-15T19:12:37.973Z,98580.99
2019-05-15T19:15:09.243Z,98588.33
2019-05-15T19:17:38.779Z,98588.33
2019-05-15T19:20:08.600Z,98594.52
2019-05-15T19:22:40.545Z,98584.50
2019-05-15T19:25:08.847Z,98587.88
2019-05-15T19:27:39.348Z,98587.28
2019-05-15T19:30:08.816Z,98587.28
2019-05-15T19:32:38.733Z,98583.44
2019-05-15T19:35:08.189Z,98591.43
2019-05-15T19:37:38.310Z,98590.64
2019-05-15T19:40:07.395Z,98587.42
2019-05-15T19:42:38.090Z,98588.42
2019-05-15T19:45:08.561Z,98579.72
2019-05-15T19:47:38.723Z,98583.28
2019-05-15T19:50:08.467Z,98580.02
2019-05-15T19:52:37.033Z,98583.64
2019-05-15T19:55:05.764Z,98583.64
2019-05-15T19:57:34.133Z,98583.73
2019-05-15T20:00:02.485Z,98583.94
2019-05-15T20:02:30.774Z,98583.94
2019-05-15T20:04:59.100Z,98579.96
2019-05-15T20:07:28.613Z,98579.96
2019-05-15T20:09:58.415Z,98579.66
2019-05-15T20:12:27.898Z,98578.83
2019-05-15T20:14:58.340Z,98578.83
2019-05-15T20:17:27.715Z,98571.80
2019-05-15T20:19:58.101Z,98568.75
2019-05-15T20:22:28.394Z,98565.80
2019-05-15T20:24:58.759Z,98565.80
2019-05-15T20:27:28.214Z,98565.38
2019-05-15T20:29:57.183Z,98559.91
2019-05-15T20:32:27.799Z,98558.75
2019-05-15T20:34:57.783Z,98550.39
2019-05-15T20:37:25.974Z,98550.39
2019-05-15T20:39:54.271Z,98548.75
2019-05-15T20:42:22.584Z,98548.75
2019-05-15T20:44:51.056Z,98549.94
2019-05-15T20:47:19.381Z,98554.00
2019-05-15T20:49:48.582Z,98554.00
2019-05-15T20:52:21.086Z,98555.17
2019-05-15T20:54:48.006Z,98555.46
2019-05-15T20:57:16.695Z,98555.46
2019-05-15T20:59:45.011Z,98556.70
2019-05-15T21:02:13.778Z,98556.70
2019-05-15T21:04:42.093Z,98550.66
2019-05-15T21:07:10.467Z,98548.56
2019-05-15T21:09:39.617Z,98550.97
2019-05-15T21:12:09.833Z,98239.11
2019-05-15T21:14:40.069Z,98239.11
2019-05-15T21:17:08.699Z,98547.45
2019-05-15T21:19:38.563Z,98547.45
2019-05-15T21:22:08.384Z,98536.49
2019-05-15T21:24:37.796Z,98539.57
2019-05-15T21:27:06.252Z,98537.15
2019-05-15T21:29:34.556Z,98521.48
2019-05-15T21:32:02.873Z,98528.33
2019-05-15T21:34:37.572Z,98528.33
2019-05-15T21:37:01.202Z,98526.61
2019-05-15T21:39:30.250Z,98526.61
2019-05-15T21:41:59.350Z,98514.66
2019-05-15T21:44:29.342Z,98527.03
2019-05-15T21:46:58.737Z,98527.03
2019-05-15T21:49:28.180Z,98528.06
2019-05-15T21:51:58.393Z,98526.45
2019-05-15T21:54:28.189Z,98518.95
2019-05-15T21:57:12.935Z,98505.45
2019-05-15T21:59:27.930Z,98505.45
2019-05-15T22:01:58.867Z,98515.34
2019-05-15T22:04:28.120Z,98512.68
2019-05-15T22:06:58.431Z,98522.21
2019-05-15T22:09:28.994Z,98509.95
2019-05-15T22:12:01.006Z,98509.95
2019-05-15T22:14:27.746Z,98505.48
2019-05-15T22:16:58.116Z,98497.13
2019-05-15T22:19:30.240Z,98496.77
2019-05-15T22:21:58.659Z,98506.36
2019-05-15T22:24:28.570Z,98503.52
2019-05-15T22:26:58.723Z,98500.04
2019-05-15T22:29:28.795Z,98499.97
2019-05-15T22:31:59.054Z,98499.97
2019-05-15T22:34:28.548Z,98495.42
2019-05-15T22:36:58.258Z,98503.73
2019-05-15T22:39:28.063Z,98503.73
2019-05-15T22:41:56.655Z,98495.30
2019-05-15T22:44:24.948Z,98501.57
2019-05-15T22:46:53.261Z,98492.50
2019-05-15T22:49:21.560Z,98492.50
2019-05-15T22:51:49.932Z,98479.83
2019-05-15T22:54:20.443Z,98493.09
2019-05-15T22:56:48.393Z,98486.67
2019-05-15T22:59:17.191Z,98481.09
2019-05-15T23:01:45.475Z,98480.89
2019-05-15T23:04:13.798Z,98479.75
2019-05-15T23:06:42.096Z,98479.75
2019-05-15T23:09:10.417Z,98481.19
2019-05-15T23:11:39.539Z,98484.31
2019-05-15T23:14:08.294Z,98469.59
2019-05-15T23:16:38.978Z,98471.24
2019-05-15T23:19:08.150Z,98462.80
2019-05-15T23:21:37.831Z,98462.80
2019-05-15T23:24:08.509Z,98466.03
2019-05-15T23:26:38.815Z,98462.46
2019-05-15T23:29:07.985Z,98444.91
2019-05-15T23:31:36.610Z,98444.91
2019-05-15T23:34:04.973Z,98461.34
2019-05-15T23:36:33.326Z,98439.84
2019-05-15T23:39:01.814Z,98439.84
2019-05-15T23:41:30.115Z,98441.14
2019-05-15T23:43:58.441Z,98445.68
2019-05-15T23:46:28.852Z,98436.29
2019-05-15T23:48:58.840Z,98432.42
2019-05-15T23:51:27.950Z,98429.40
2019-05-15T23:53:58.596Z,98429.40
2019-05-15T23:56:28.857Z,98431.17
2019-05-15T23:58:56.367Z,98427.22
